Terminal Aerodrome Forecast
Issued by NWS Pueblo, CO

Home | Current Version | Previous Version | Text Only | Print | Product List | Glossary On
Versions: 1 2 3 4 5 6 7 8 9 10 11 12 13 14 15 16 17 18
000
FTUS45 KPUB 292331
TAFCOS
TAF
KCOS 292331Z 3000/3024 12009KT P6SM SCT080 BKN140
     FM300200 03008KT P6SM SCT120 BKN200
     FM300600 36007KT P6SM SCT200
     FM301800 17012KT P6SM SCT080 SCT120
     FM302000 15012KT P6SM VCTS SCT070CB BKN100=

USA.gov is the U.S. government's official web portal to all federal, state and local government web resources and services.